Seaway II — ZMR3466 — position and weather

sailwx.info

Track history (hours):
 
Tides and Currents Weather Stations Pressure Air Temp Water Temp Dewpoint Dewpoint Depression Visibility Wind Speed Wind Dir Waves Ship Positions

Seaway II

Last reported at 2015-Nov-04 16:29 UTC. Time now 2016-May-26 18:29 UTC.
Position S 36°50' E 174°58'.
Warning: this ship's position is months out of date.

Length 37 m.

Type: Passenger vessel. MMSI: 512001026.

Date/timePositionNaut miles runAvg speedWind from/ knotsBaromVisibWave heightAir tempDewpointWater temp
2015-Nov-04 16:29S 36°50' E 174°58'4 0.4
2015-Nov-04 06:19S 36°52' E 174°54'5 6.6
2015-Nov-04 05:32S 36°49' E 174°59'1 0.5
2015-Nov-04 04:32S 36°50' E 174°60'5 5.3
2015-Nov-04 03:33S 36°52' E 174°54'5 4.5
2015-Nov-04 02:32S 36°50' E 174°59'5 4.1
2015-Nov-04 01:23S 36°52' E 174°54'4 2.0
2015-Nov-03 23:33S 36°50' E 174°58'4 3.6
2015-Nov-03 22:22S 36°53' E 174°54'2 0.1
2015-Nov-03 05:33S 36°51' E 174°54'4 4.3
2015-Nov-03 04:32S 36°50' E 174°59'5 5.2
2015-Nov-03 03:32S 36°53' E 174°54'2 1.6
2015-Nov-03 02:33S 36°51' E 174°54'5 4.4
2015-Nov-03 01:32S 36°50' E 174°59'5 3.9
2015-Nov-03 00:13S 36°53' E 174°54'4 1.5
2015-Nov-02 21:33S 36°50' E 174°57'0 0.0
2015-Nov-02 04:33S 36°50' E 174°58'4 0.7
2015-Nov-01 23:09S 36°51' E 174°53'0 0.1
2015-Nov-01 18:25S 36°51' E 174°54'3 1.7
2015-Nov-01 16:29S 36°50' E 174°58'4 0.4
2015-Nov-01 06:15S 36°52' E 174°54'3 1.1
2015-Nov-01 03:27S 36°49' E 174°53'1 0.5
2015-Nov-01 00:30S 36°49' E 174°54'2 0.1
2015-Oct-31 03:27S 36°49' E 174°52'0 0.0
2015-Oct-31 00:25S 36°49' E 174°52'4 1.2
2015-Oct-30 21:12S 36°50' E 174°57'0 0.0
2015-Oct-30 07:17S 36°50' E 174°58'0 0.0
2015-Oct-30 04:33S 36°50' E 174°58'4 0.4
2015-Oct-29 19:33S 36°52' E 174°54'4 3.4
2015-Oct-29 18:31S 36°50' E 174°58'1 0.4
2015-Oct-29 16:33S 36°50' E 174°57'3 0.3
2015-Oct-29 05:34S 36°52' E 174°54'4 3.8
2015-Oct-29 04:33S 36°50' E 174°58'4 1.2
2015-Oct-29 01:25S 36°52' E 174°54'3 1.8
2015-Oct-28 23:32S 36°50' E 174°57'3 2.8
2015-Oct-28 22:19S 36°52' E 174°54'4 2.0
2015-Oct-28 20:33S 36°50' E 174°57'3 3.5
2015-Oct-28 19:33S 36°51' E 174°54'4 3.7
2015-Oct-28 18:33S 36°50' E 174°58'4 3.8
2015-Oct-28 17:33S 36°52' E 174°54'4 3.4
2015-Oct-28 16:31S 36°50' E 174°58'1 0.0
2015-Oct-27 04:33S 36°50' E 174°59'4 0.2
2015-Oct-26 06:15S 36°52' E 174°54'3 1.0
2015-Oct-26 03:30S 36°49' E 174°53'0 0.1
2015-Oct-26 00:29S 36°49' E 174°53'4 1.4
2015-Oct-25 21:15S 36°50' E 174°58'  
Track history (hours):
 
Tides and Currents Weather Stations Pressure Air Temp Water Temp Dewpoint Dewpoint Depression Visibility Wind Speed Wind Dir Waves Ship Positions

Seaway II

Last reported at 2015-Nov-04 16:29 UTC. Time now 2016-May-26 18:29 UTC.
Position S 36°50' E 174°58'.
Warning: this ship's position is months out of date.

Length 37 m.

Type: Passenger vessel. MMSI: 512001026.

Date/timePositionNaut miles runAvg speedWind from/ knotsBaromVisibWave heightAir tempDewpointWater temp
2015-Nov-04 16:29S 36°50' E 174°58'4 0.4
2015-Nov-04 06:19S 36°52' E 174°54'5 6.6
2015-Nov-04 05:32S 36°49' E 174°59'1 0.5
2015-Nov-04 04:32S 36°50' E 174°60'5 5.3
2015-Nov-04 03:33S 36°52' E 174°54'5 4.5
2015-Nov-04 02:32S 36°50' E 174°59'5 4.1
2015-Nov-04 01:23S 36°52' E 174°54'4 2.0
2015-Nov-03 23:33S 36°50' E 174°58'4 3.6
2015-Nov-03 22:22S 36°53' E 174°54'2 0.1
2015-Nov-03 05:33S 36°51' E 174°54'4 4.3
2015-Nov-03 04:32S 36°50' E 174°59'5 5.2
2015-Nov-03 03:32S 36°53' E 174°54'2 1.6
2015-Nov-03 02:33S 36°51' E 174°54'5 4.4
2015-Nov-03 01:32S 36°50' E 174°59'5 3.9
2015-Nov-03 00:13S 36°53' E 174°54'4 1.5
2015-Nov-02 21:33S 36°50' E 174°57'0 0.0
2015-Nov-02 04:33S 36°50' E 174°58'4 0.7
2015-Nov-01 23:09S 36°51' E 174°53'0 0.1
2015-Nov-01 18:25S 36°51' E 174°54'3 1.7
2015-Nov-01 16:29S 36°50' E 174°58'4 0.4
2015-Nov-01 06:15S 36°52' E 174°54'3 1.1
2015-Nov-01 03:27S 36°49' E 174°53'1 0.5
2015-Nov-01 00:30S 36°49' E 174°54'2 0.1
2015-Oct-31 03:27S 36°49' E 174°52'0 0.0
2015-Oct-31 00:25S 36°49' E 174°52'4 1.2
2015-Oct-30 21:12S 36°50' E 174°57'0 0.0
2015-Oct-30 07:17S 36°50' E 174°58'0 0.0
2015-Oct-30 04:33S 36°50' E 174°58'4 0.4
2015-Oct-29 19:33S 36°52' E 174°54'4 3.4
2015-Oct-29 18:31S 36°50' E 174°58'1 0.4
2015-Oct-29 16:33S 36°50' E 174°57'3 0.3
2015-Oct-29 05:34S 36°52' E 174°54'4 3.8
2015-Oct-29 04:33S 36°50' E 174°58'4 1.2
2015-Oct-29 01:25S 36°52' E 174°54'3 1.8
2015-Oct-28 23:32S 36°50' E 174°57'3 2.8
2015-Oct-28 22:19S 36°52' E 174°54'4 2.0
2015-Oct-28 20:33S 36°50' E 174°57'3 3.5
2015-Oct-28 19:33S 36°51' E 174°54'4 3.7
2015-Oct-28 18:33S 36°50' E 174°58'4 3.8
2015-Oct-28 17:33S 36°52' E 174°54'4 3.4
2015-Oct-28 16:31S 36°50' E 174°58'1 0.0
2015-Oct-27 04:33S 36°50' E 174°59'4 0.2
2015-Oct-26 06:15S 36°52' E 174°54'3 1.0
2015-Oct-26 03:30S 36°49' E 174°53'0 0.1
2015-Oct-26 00:29S 36°49' E 174°53'4 1.4
2015-Oct-25 21:15S 36°50' E 174°58'  

Dump ship's entire track history